createdAt,value
2019-05-07T00:01:12.383Z,6.73
2019-05-07T00:03:42.251Z,9.70
2019-05-07T00:06:12.373Z,11.73
2019-05-07T00:08:44.684Z,9.50
2019-05-07T00:11:12.796Z,14.13
2019-05-07T00:13:44.339Z,5.63
2019-05-07T00:16:13.528Z,4.50
2019-05-07T00:18:43.098Z,9.90
2019-05-07T00:21:12.748Z,7.73
2019-05-07T00:23:43.323Z,8.90
2019-05-07T00:26:13.228Z,6.17
2019-05-07T00:28:43.184Z,7.30
2019-05-07T00:31:12.908Z,6.17
2019-05-07T00:33:43.214Z,15.00
2019-05-07T00:36:32.369Z,12.17
2019-05-07T00:39:15.595Z,4.53
2019-05-07T00:41:52.360Z,4.33
2019-05-07T00:44:22.145Z,12.20
2019-05-07T00:46:52.519Z,12.30
2019-05-07T00:49:23.959Z,4.93
2019-05-07T00:51:53.308Z,12.10
2019-05-07T00:54:22.994Z,5.03
2019-05-07T00:56:53.065Z,10.63
2019-05-07T00:59:22.659Z,5.70
2019-05-07T01:01:52.847Z,5.07
2019-05-07T01:04:22.886Z,7.63
2019-05-07T01:06:53.184Z,10.40
2019-05-07T01:09:23.043Z,7.80
2019-05-07T01:11:52.489Z,5.00
2019-05-07T01:14:22.811Z,9.63
2019-05-07T01:16:52.884Z,8.83
2019-05-07T01:19:22.388Z,7.60
2019-05-07T01:21:52.522Z,6.63
2019-05-07T01:24:23.827Z,8.03
2019-05-07T01:26:53.031Z,12.00
2019-05-07T01:29:23.146Z,7.97
2019-05-07T01:32:04.478Z,13.73
2019-05-07T01:34:39.443Z,5.03
2019-05-07T01:37:08.624Z,7.07
2019-05-07T01:39:37.889Z,8.63
2019-05-07T01:42:06.650Z,11.70
2019-05-07T01:44:37.236Z,6.80
2019-05-07T01:47:06.656Z,6.47
2019-05-07T01:49:36.150Z,8.67
2019-05-07T01:52:05.557Z,6.00
2019-05-07T01:54:34.378Z,8.50
2019-05-07T01:57:03.284Z,8.57
2019-05-07T01:59:32.767Z,7.20
2019-05-07T02:02:07.917Z,7.43
2019-05-07T02:04:54.836Z,9.60
2019-05-07T02:07:36.967Z,9.53
2019-05-07T02:10:32.948Z,9.33
2019-05-07T02:13:02.469Z,6.03
2019-05-07T02:15:32.245Z,8.30
2019-05-07T02:18:01.986Z,8.63
2019-05-07T02:20:32.122Z,10.80
2019-05-07T02:23:02.810Z,6.17
2019-05-07T02:25:32.690Z,12.40
2019-05-07T02:28:03.122Z,9.80
2019-05-07T02:30:35.089Z,7.43
2019-05-07T02:33:03.723Z,8.23
2019-05-07T02:35:33.626Z,11.37
2019-05-07T02:38:17.472Z,9.80
2019-05-07T02:40:53.399Z,11.93
2019-05-07T02:43:23.006Z,7.30
2019-05-07T02:46:25.095Z,9.63
2019-05-07T02:49:07.003Z,7.70
2019-05-07T02:51:43.550Z,10.53
2019-05-07T02:54:23.812Z,8.97
2019-05-07T02:56:53.280Z,9.13
2019-05-07T02:59:23.308Z,10.80
2019-05-07T03:01:53.784Z,14.27
2019-05-07T03:04:25.006Z,9.43
2019-05-07T03:06:54.395Z,9.57
2019-05-07T03:09:23.644Z,10.03
2019-05-07T03:11:53.247Z,5.73
2019-05-07T03:14:23.760Z,7.80
2019-05-07T03:16:54.063Z,8.03
2019-05-07T03:19:24.906Z,7.70
2019-05-07T03:21:54.642Z,9.17
2019-05-07T03:24:39.417Z,10.20
2019-05-07T03:27:08.565Z,8.00
2019-05-07T03:29:39.470Z,16.43
2019-05-07T03:32:39.325Z,12.73
2019-05-07T03:35:19.127Z,12.53
2019-05-07T03:37:48.428Z,12.57
2019-05-07T03:40:19.526Z,11.50
2019-05-07T03:42:49.007Z,13.80
2019-05-07T03:45:42.970Z,12.93
2019-05-07T03:48:15.227Z,9.13
2019-05-07T03:50:45.395Z,11.30
2019-05-07T03:53:14.779Z,12.60
2019-05-07T03:55:44.662Z,5.30
2019-05-07T03:58:14.823Z,7.87
2019-05-07T04:00:44.704Z,15.90
2019-05-07T04:03:18.778Z,10.10
2019-05-07T04:05:44.993Z,7.13
2019-05-07T04:08:13.818Z,7.10
2019-05-07T04:10:44.264Z,6.43
2019-05-07T04:13:13.904Z,8.07
2019-05-07T04:15:44.042Z,15.70
2019-05-07T04:18:13.633Z,10.10
2019-05-07T04:20:43.807Z,8.67
2019-05-07T04:23:16.067Z,10.03
2019-05-07T04:26:03.869Z,13.83
2019-05-07T04:28:54.346Z,8.67
2019-05-07T04:31:25.531Z,9.47
2019-05-07T04:33:57.115Z,10.50
2019-05-07T04:36:34.122Z,14.07
2019-05-07T04:39:03.519Z,5.37
2019-05-07T04:41:33.110Z,7.33
2019-05-07T04:44:03.553Z,12.07
2019-05-07T04:46:33.683Z,9.70
2019-05-07T04:49:03.950Z,13.73
2019-05-07T04:51:45.896Z,8.33
2019-05-07T04:54:14.760Z,6.60
2019-05-07T04:56:44.050Z,11.27
2019-05-07T04:59:13.289Z,10.53
2019-05-07T05:01:48.266Z,9.57
2019-05-07T05:04:28.930Z,8.60
2019-05-07T05:06:48.432Z,7.37
2019-05-07T05:09:17.648Z,7.90
2019-05-07T05:11:46.674Z,9.20
2019-05-07T05:14:15.603Z,6.50
2019-05-07T05:16:44.532Z,6.67
2019-05-07T05:19:13.408Z,12.70
2019-05-07T05:22:02.034Z,8.10
2019-05-07T05:24:43.537Z,7.27
2019-05-07T05:27:13.005Z,4.83
2019-05-07T05:29:43.050Z,9.10
2019-05-07T05:32:12.162Z,10.17
2019-05-07T05:34:42.620Z,8.93
2019-05-07T05:37:12.011Z,8.13
2019-05-07T05:39:42.628Z,9.03
2019-05-07T05:42:34.770Z,14.33
2019-05-07T05:45:03.867Z,10.63
2019-05-07T05:47:33.041Z,7.33
2019-05-07T05:50:02.136Z,6.80
2019-05-07T05:52:45.034Z,8.00
2019-05-07T05:55:17.264Z,5.00
2019-05-07T05:58:06.863Z,9.43
2019-05-07T06:00:53.305Z,10.77
2019-05-07T06:03:43.130Z,7.40
2019-05-07T06:06:32.574Z,7.23
2019-05-07T06:09:26.861Z,11.17
2019-05-07T06:12:13.934Z,12.27
2019-05-07T06:14:49.846Z,10.87
2019-05-07T06:17:36.813Z,7.17
2019-05-07T06:20:24.299Z,9.23
2019-05-07T06:23:13.006Z,7.87
2019-05-07T06:25:43.114Z,11.07
2019-05-07T06:28:12.661Z,9.17
2019-05-07T06:30:42.104Z,9.00
2019-05-07T06:33:12.421Z,6.47
2019-05-07T06:35:42.880Z,11.43
2019-05-07T06:38:13.024Z,8.93
2019-05-07T06:40:48.044Z,7.90
2019-05-07T06:43:37.679Z,4.60
2019-05-07T06:46:07.319Z,10.57
2019-05-07T06:48:42.376Z,3.93
2019-05-07T06:51:07.270Z,8.70
2019-05-07T06:53:36.524Z,4.27
2019-05-07T06:56:05.776Z,8.00
2019-05-07T06:58:52.801Z,2.77
2019-05-07T07:01:53.428Z,7.03
2019-05-07T07:04:27.136Z,7.73
2019-05-07T07:07:27.434Z,7.60
2019-05-07T07:09:57.373Z,8.97
2019-05-07T07:12:28.661Z,4.23
2019-05-07T07:14:58.152Z,4.30
2019-05-07T07:17:27.616Z,9.43
2019-05-07T07:19:56.910Z,6.63
2019-05-07T07:22:26.067Z,11.20
2019-05-07T07:24:54.866Z,6.87
2019-05-07T07:27:24.158Z,10.83
2019-05-07T07:30:12.812Z,8.43
2019-05-07T07:32:44.895Z,7.90
2019-05-07T07:35:16.229Z,8.97
2019-05-07T07:37:45.567Z,9.57
2019-05-07T07:40:22.822Z,9.70
2019-05-07T07:42:52.168Z,8.90
2019-05-07T07:45:23.018Z,11.33
2019-05-07T07:47:53.062Z,8.17
2019-05-07T07:50:22.554Z,14.83
2019-05-07T07:52:52.987Z,3.47
2019-05-07T07:55:28.975Z,3.33
2019-05-07T07:58:06.906Z,9.30
2019-05-07T08:00:42.975Z,6.93
2019-05-07T08:03:13.377Z,4.83
2019-05-07T08:05:42.874Z,6.20
2019-05-07T08:08:12.820Z,3.83
2019-05-07T08:10:42.561Z,5.17
2019-05-07T08:13:12.276Z,3.57
2019-05-07T08:15:42.988Z,4.00
2019-05-07T08:18:12.149Z,3.03
2019-05-07T08:20:43.054Z,3.43
2019-05-07T08:23:12.252Z,7.57
2019-05-07T08:25:47.662Z,4.70
2019-05-07T08:28:17.397Z,5.37
2019-05-07T08:30:52.620Z,4.10
2019-05-07T08:33:25.988Z,2.47
2019-05-07T08:36:14.749Z,6.40
2019-05-07T08:38:53.232Z,3.47
2019-05-07T08:41:23.522Z,3.63
2019-05-07T08:44:14.613Z,3.17
2019-05-07T08:47:12.409Z,8.63
2019-05-07T08:49:43.353Z,5.60
2019-05-07T08:52:12.830Z,4.57
2019-05-07T08:54:42.811Z,9.07
2019-05-07T08:57:12.455Z,4.70
2019-05-07T08:59:43.739Z,7.33
2019-05-07T09:02:12.719Z,9.60
2019-05-07T09:04:42.294Z,7.20
2019-05-07T09:07:13.062Z,13.07
2019-05-07T09:09:44.382Z,3.27
2019-05-07T09:12:13.427Z,3.67
2019-05-07T09:14:42.816Z,1.90
2019-05-07T09:17:12.965Z,6.33
2019-05-07T09:19:50.658Z,3.53
2019-05-07T09:22:13.295Z,5.23
2019-05-07T09:24:42.789Z,2.13
2019-05-07T09:27:36.139Z,2.90
2019-05-07T09:30:22.111Z,1.70
2019-05-07T09:33:13.846Z,4.30
2019-05-07T09:35:48.935Z,8.93
2019-05-07T09:38:18.158Z,6.30
2019-05-07T09:40:47.644Z,6.70
2019-05-07T09:43:17.003Z,2.10
2019-05-07T09:45:46.288Z,3.90
2019-05-07T09:48:16.648Z,4.07
2019-05-07T09:50:45.928Z,2.00
2019-05-07T09:53:15.235Z,5.10
2019-05-07T09:55:44.411Z,6.10
2019-05-07T09:58:13.924Z,2.13
2019-05-07T10:00:43.481Z,2.53
2019-05-07T10:03:12.926Z,1.30
2019-05-07T10:05:42.900Z,4.13
2019-05-07T10:08:12.889Z,2.17
2019-05-07T10:10:43.083Z,7.80
2019-05-07T10:13:34.550Z,1.27
2019-05-07T10:16:04.287Z,6.47
2019-05-07T10:18:34.313Z,3.33
2019-05-07T10:21:03.296Z,6.70
2019-05-07T10:23:32.471Z,5.47
2019-05-07T10:26:03.455Z,1.20
2019-05-07T10:28:32.410Z,4.53
2019-05-07T10:31:01.737Z,1.70
2019-05-07T10:33:31.915Z,1.80
2019-05-07T10:36:02.085Z,2.80
2019-05-07T10:38:31.615Z,4.03
2019-05-07T10:41:02.655Z,2.77
2019-05-07T10:43:32.760Z,3.60
2019-05-07T10:46:20.376Z,2.93
2019-05-07T10:49:08.934Z,2.87
2019-05-07T10:51:38.650Z,4.90
2019-05-07T10:54:07.877Z,1.47
2019-05-07T10:56:36.800Z,1.67
2019-05-07T10:59:05.889Z,1.90
2019-05-07T11:01:46.397Z,1.67
2019-05-07T11:04:15.595Z,2.60
2019-05-07T11:06:44.829Z,6.43
2019-05-07T11:09:13.765Z,4.20
2019-05-07T11:11:43.047Z,4.27
2019-05-07T11:14:12.383Z,2.87
2019-05-07T11:16:48.497Z,1.10
2019-05-07T11:19:18.997Z,3.77
2019-05-07T11:21:48.394Z,1.07
2019-05-07T11:24:17.983Z,1.10
2019-05-07T11:26:46.810Z,1.07
2019-05-07T11:29:15.992Z,3.77
2019-05-07T11:31:45.580Z,1.10
2019-05-07T11:34:14.682Z,2.80
2019-05-07T11:36:44.544Z,1.03
2019-05-07T11:39:13.691Z,1.87
2019-05-07T11:42:02.272Z,1.83
2019-05-07T11:44:32.107Z,3.53
2019-05-07T11:47:22.729Z,2.37
2019-05-07T11:50:09.295Z,1.33
2019-05-07T11:52:42.559Z,3.43
2019-05-07T11:55:12.148Z,2.50
2019-05-07T11:57:44.179Z,1.93
2019-05-07T12:00:21.936Z,3.57
2019-05-07T12:02:51.883Z,1.93
2019-05-07T12:05:22.679Z,5.13
2019-05-07T12:07:51.943Z,3.60
2019-05-07T12:10:22.261Z,2.40
2019-05-07T12:12:52.148Z,3.77
2019-05-07T12:15:21.722Z,1.90
2019-05-07T12:17:52.201Z,1.90
2019-05-07T12:20:21.814Z,2.07
2019-05-07T12:22:52.185Z,2.13
2019-05-07T12:25:22.329Z,5.23
2019-05-07T12:27:52.411Z,2.37
2019-05-07T12:30:32.481Z,3.17
2019-05-07T12:33:12.316Z,1.37
2019-05-07T12:35:42.042Z,1.37
2019-05-07T12:38:12.796Z,3.73
2019-05-07T12:40:42.023Z,3.00
2019-05-07T12:43:10.982Z,2.17
2019-05-07T12:45:41.979Z,4.90
2019-05-07T12:48:12.175Z,3.47
2019-05-07T12:50:43.221Z,2.27
2019-05-07T12:53:42.315Z,2.97
2019-05-07T12:56:10.823Z,2.90
2019-05-07T12:58:39.627Z,7.83
2019-05-07T13:01:17.606Z,3.33
2019-05-07T13:04:14.584Z,1.67
2019-05-07T13:07:02.491Z,2.57
2019-05-07T13:09:32.474Z,3.47
2019-05-07T13:12:03.063Z,3.37
2019-05-07T13:14:32.355Z,3.60
2019-05-07T13:17:02.755Z,2.50
2019-05-07T13:19:33.059Z,2.53
2019-05-07T13:22:02.955Z,1.53
2019-05-07T13:24:32.249Z,1.60
2019-05-07T13:27:03.287Z,1.50
2019-05-07T13:29:32.653Z,2.13
2019-05-07T13:32:03.831Z,4.73
2019-05-07T13:34:34.164Z,3.87
2019-05-07T13:37:09.567Z,1.60
2019-05-07T13:39:51.976Z,4.17
2019-05-07T13:42:45.324Z,2.47
2019-05-07T13:45:41.583Z,5.90
2019-05-07T13:48:18.894Z,1.87
2019-05-07T13:50:48.416Z,1.60
2019-05-07T13:53:17.605Z,3.10
2019-05-07T13:55:47.281Z,3.47
2019-05-07T13:58:16.582Z,1.90
2019-05-07T14:00:53.406Z,4.87
2019-05-07T14:03:22.771Z,2.33
2019-05-07T14:05:52.516Z,3.13
2019-05-07T14:08:23.119Z,3.67
2019-05-07T14:10:52.614Z,5.17
2019-05-07T14:13:22.488Z,2.73
2019-05-07T14:16:12.025Z,2.00
2019-05-07T14:18:41.868Z,5.13
2019-05-07T14:21:12.994Z,2.43
2019-05-07T14:23:42.818Z,1.93
2019-05-07T14:26:12.119Z,2.20
2019-05-07T14:28:42.723Z,2.13
2019-05-07T14:31:12.310Z,2.33
2019-05-07T14:34:02.351Z,3.77
2019-05-07T14:36:39.761Z,3.60
2019-05-07T14:39:09.111Z,3.67
2019-05-07T14:41:38.204Z,1.70
2019-05-07T14:44:12.092Z,5.40
2019-05-07T14:46:50.324Z,6.50
2019-05-07T14:49:12.503Z,3.93
2019-05-07T14:51:41.783Z,3.17
2019-05-07T14:54:12.337Z,1.73
2019-05-07T14:56:46.616Z,1.70
2019-05-07T14:59:16.453Z,6.23
2019-05-07T15:01:45.973Z,2.53
2019-05-07T15:04:15.306Z,1.70
2019-05-07T15:06:46.629Z,4.50
2019-05-07T15:09:15.485Z,3.87
2019-05-07T15:11:45.275Z,3.43
2019-05-07T15:14:15.035Z,1.80
2019-05-07T15:16:45.402Z,2.20
2019-05-07T15:19:14.300Z,4.80
2019-05-07T15:21:43.496Z,4.77
2019-05-07T15:24:13.942Z,5.63
2019-05-07T15:26:42.929Z,3.17
2019-05-07T15:29:13.758Z,3.93
2019-05-07T15:31:57.647Z,3.07
2019-05-07T15:34:26.787Z,6.30
2019-05-07T15:36:56.300Z,4.20
2019-05-07T15:39:25.256Z,4.97
2019-05-07T15:41:54.419Z,2.83
2019-05-07T15:44:23.713Z,5.20
2019-05-07T15:46:55.134Z,2.93
2019-05-07T15:49:24.599Z,4.40
2019-05-07T15:51:55.473Z,3.60
2019-05-07T15:54:24.460Z,2.27
2019-05-07T15:56:55.974Z,2.30
2019-05-07T15:59:24.849Z,1.93
2019-05-07T16:01:59.011Z,3.87
2019-05-07T16:04:27.945Z,4.60
2019-05-07T16:06:58.566Z,3.57
2019-05-07T16:09:32.508Z,2.80
2019-05-07T16:12:02.487Z,3.73
2019-05-07T16:14:32.122Z,1.87
2019-05-07T16:17:10.406Z,2.33
2019-05-07T16:19:39.657Z,2.73
2019-05-07T16:22:13.375Z,4.60
2019-05-07T16:24:43.165Z,2.13
2019-05-07T16:27:12.417Z,1.70
2019-05-07T16:29:42.248Z,2.17
2019-05-07T16:32:11.168Z,2.43
2019-05-07T16:34:42.749Z,2.13
2019-05-07T16:37:12.331Z,7.40
2019-05-07T16:39:42.319Z,3.90
2019-05-07T16:42:11.609Z,4.67
2019-05-07T16:44:41.726Z,2.07
2019-05-07T16:47:12.157Z,2.73
2019-05-07T16:49:42.484Z,4.90
2019-05-07T16:52:12.056Z,2.03
2019-05-07T16:54:42.673Z,3.07
2019-05-07T16:57:19.396Z,2.40
2019-05-07T16:59:48.621Z,2.00
2019-05-07T17:02:23.031Z,1.70
2019-05-07T17:05:12.159Z,11.33
2019-05-07T17:07:46.845Z,6.37
2019-05-07T17:10:15.837Z,3.20
2019-05-07T17:12:48.463Z,2.10
2019-05-07T17:15:17.773Z,1.53
2019-05-07T17:17:48.617Z,4.93
2019-05-07T17:20:17.897Z,4.67
2019-05-07T17:22:47.143Z,2.20
2019-05-07T17:25:34.359Z,2.57
2019-05-07T17:28:04.242Z,1.77
2019-05-07T17:30:33.465Z,2.20
2019-05-07T17:33:02.283Z,2.53
2019-05-07T17:35:34.238Z,3.83
2019-05-07T17:38:07.304Z,3.70
2019-05-07T17:40:32.643Z,4.67
2019-05-07T17:43:03.160Z,3.20
2019-05-07T17:45:32.922Z,1.93
2019-05-07T17:48:03.173Z,8.70
2019-05-07T17:50:42.720Z,3.60
2019-05-07T17:53:12.135Z,3.30
2019-05-07T17:55:42.345Z,3.20
2019-05-07T17:58:12.932Z,3.20
2019-05-07T18:00:43.782Z,4.27
2019-05-07T18:03:32.242Z,3.50
2019-05-07T18:06:02.505Z,5.33
2019-05-07T18:08:32.449Z,4.93
2019-05-07T18:11:02.673Z,1.90
2019-05-07T18:13:33.022Z,4.73
2019-05-07T18:16:12.235Z,2.83
2019-05-07T18:18:43.222Z,5.77
2019-05-07T18:21:12.684Z,3.17
2019-05-07T18:23:43.430Z,3.00
2019-05-07T18:26:26.325Z,1.90
2019-05-07T18:28:42.911Z,3.57
2019-05-07T18:31:12.578Z,2.60
2019-05-07T18:33:52.337Z,3.17
2019-05-07T18:36:22.711Z,4.73
2019-05-07T18:38:52.855Z,2.73
2019-05-07T18:41:22.425Z,1.87
2019-05-07T18:43:54.593Z,2.87
2019-05-07T18:46:22.711Z,1.87
2019-05-07T18:48:52.018Z,5.20
2019-05-07T18:51:21.512Z,2.47
2019-05-07T18:53:51.975Z,1.60
2019-05-07T18:56:22.087Z,3.03
2019-05-07T18:58:52.126Z,2.77
2019-05-07T19:01:23.250Z,1.80
2019-05-07T19:03:52.660Z,3.67
2019-05-07T19:06:22.424Z,2.10
2019-05-07T19:08:52.720Z,2.93
2019-05-07T19:11:22.801Z,3.30
2019-05-07T19:13:52.843Z,2.20
2019-05-07T19:16:23.153Z,2.47
2019-05-07T19:18:53.263Z,2.80
2019-05-07T19:21:22.462Z,4.03
2019-05-07T19:23:52.994Z,3.60
2019-05-07T19:26:22.522Z,3.43
2019-05-07T19:28:51.725Z,2.60
2019-05-07T19:31:22.017Z,1.77
2019-05-07T19:33:52.519Z,1.83
2019-05-07T19:36:22.369Z,2.00
2019-05-07T19:38:52.569Z,1.70
2019-05-07T19:41:22.076Z,2.60
2019-05-07T19:43:52.758Z,2.33
2019-05-07T19:46:22.839Z,6.03
2019-05-07T19:48:52.168Z,1.50
2019-05-07T19:51:21.425Z,7.17
2019-05-07T19:53:52.573Z,1.67
2019-05-07T19:56:23.889Z,1.87
2019-05-07T19:58:54.787Z,4.83
2019-05-07T20:01:29.112Z,3.33
2019-05-07T20:03:58.119Z,9.13
2019-05-07T20:06:28.565Z,1.73
2019-05-07T20:09:09.063Z,1.97
2019-05-07T20:11:36.849Z,5.40
2019-05-07T20:14:06.436Z,3.00
2019-05-07T20:16:35.624Z,6.70
2019-05-07T20:19:05.319Z,2.70
2019-05-07T20:21:34.287Z,2.77
2019-05-07T20:24:03.590Z,3.07
2019-05-07T20:26:32.971Z,1.90
2019-05-07T20:29:03.076Z,2.23
2019-05-07T20:31:33.158Z,1.50
2019-05-07T20:34:03.039Z,3.60
2019-05-07T20:36:32.745Z,2.30
2019-05-07T20:39:02.384Z,3.57
2019-05-07T20:41:32.962Z,2.03
2019-05-07T20:44:03.022Z,1.90
2019-05-07T20:46:32.190Z,3.13
2019-05-07T20:49:02.939Z,2.93
2019-05-07T20:51:32.722Z,2.13
2019-05-07T20:54:22.909Z,2.77
2019-05-07T20:56:57.516Z,4.43
2019-05-07T20:59:27.229Z,2.90
2019-05-07T21:01:56.382Z,2.70
2019-05-07T21:04:25.503Z,3.17
2019-05-07T21:06:54.608Z,2.60
2019-05-07T21:09:23.826Z,5.87
2019-05-07T21:11:53.069Z,5.13
2019-05-07T21:14:22.873Z,5.70
2019-05-07T21:16:52.304Z,5.00
2019-05-07T21:19:22.732Z,7.23
2019-05-07T21:21:52.012Z,5.03
2019-05-07T21:24:22.577Z,8.43
2019-05-07T21:26:53.076Z,3.50
2019-05-07T21:29:22.223Z,4.20
2019-05-07T21:31:52.428Z,4.80
2019-05-07T21:34:22.995Z,4.17
2019-05-07T21:36:53.518Z,5.03
2019-05-07T21:39:22.511Z,2.53
2019-05-07T21:41:52.116Z,5.30
2019-05-07T21:44:22.670Z,2.40
2019-05-07T21:46:52.462Z,2.63
2019-05-07T21:49:22.852Z,2.20
2019-05-07T21:51:54.386Z,2.43
2019-05-07T21:54:29.446Z,2.40
2019-05-07T21:57:23.984Z,3.03
2019-05-07T22:00:12.766Z,2.20
2019-05-07T22:02:42.301Z,2.67
2019-05-07T22:05:11.799Z,2.20
2019-05-07T22:07:41.516Z,2.67
2019-05-07T22:10:12.701Z,4.00
2019-05-07T22:12:42.331Z,3.37
2019-05-07T22:15:12.913Z,5.63
2019-05-07T22:17:44.152Z,5.73
2019-05-07T22:20:13.062Z,8.53
2019-05-07T22:22:42.774Z,3.83
2019-05-07T22:25:13.069Z,5.57
2019-05-07T22:27:42.441Z,6.00
2019-05-07T22:30:15.351Z,4.27
2019-05-07T22:32:52.679Z,5.53
2019-05-07T22:35:29.004Z,3.13
2019-05-07T22:37:58.987Z,3.40
2019-05-07T22:40:28.364Z,7.37
2019-05-07T22:42:57.825Z,2.67
2019-05-07T22:45:26.993Z,4.60
2019-05-07T22:47:56.602Z,2.23
2019-05-07T22:50:25.474Z,3.43
2019-05-07T22:52:54.798Z,15.57
2019-05-07T22:55:24.363Z,18.23
2019-05-07T22:58:02.048Z,29.10
2019-05-07T23:00:37.315Z,23.97
2019-05-07T23:03:09.394Z,13.60
2019-05-07T23:05:38.669Z,10.70
2019-05-07T23:08:07.891Z,6.07
2019-05-07T23:10:36.741Z,6.13
2019-05-07T23:13:05.770Z,3.03
2019-05-07T23:15:35.375Z,2.77
2019-05-07T23:18:04.506Z,2.10
2019-05-07T23:20:34.047Z,3.47
2019-05-07T23:23:02.958Z,2.40
2019-05-07T23:25:53.933Z,2.57
2019-05-07T23:28:23.454Z,2.13
2019-05-07T23:30:52.290Z,2.37
2019-05-07T23:33:22.621Z,2.17
2019-05-07T23:35:52.779Z,4.17
2019-05-07T23:38:22.645Z,3.33
2019-05-07T23:41:02.069Z,3.83
2019-05-07T23:43:30.591Z,3.17
2019-05-07T23:46:02.114Z,2.97
2019-05-07T23:48:32.110Z,2.50
2019-05-07T23:51:02.100Z,2.50
2019-05-07T23:53:31.145Z,2.90
2019-05-07T23:56:00.107Z,2.90
2019-05-07T23:58:29.259Z,2.40
